Kindersley Airport

CYKY | YKY

Kindersley , Saskatchewan , Canada

Saturday, September 21st, 2019 | 05:38

Weather

CYKY 211100Z 28011KT 15SM SKC 04/03 A2990 RMK SLP138

Charts

No Charts Available

Gates

No Gates Available

Runways

2 Available

Events

No events for this airport


New event